Time;durP1;ratioP1;P1;durP2;ratioP2;P2;SDS_P1;SDS_P2;PMS_P1;PMS_P2;Temp;Humidity;BMP_temperature;BMP_pressure;BME280_temperature;BME280_humidity;BME280_pressure;Samples;Min_cycle;Max_cycle;Signal;HPM_P1;HPM_P2
2023/04/14 00:01:18;;;;;;;11.10;9.10;;;12.10;99.90;;;;;;5041574;28;20729;-84
2023/04/14 00:04:06;;;;;;;10.95;8.75;;;12.20;99.90;;;;;;5046525;28;20229;-84
2023/04/14 00:06:57;;;;;;;11.18;9.18;;;12.00;99.90;;;;;;5026853;28;20238;-84
2023/04/14 00:09:46;;;;;;;11.70;9.30;;;11.80;99.90;;;;;;5034123;28;20613;-84
2023/04/14 00:12:35;;;;;;;10.75;9.13;;;11.90;99.90;;;;;;5039792;28;20826;-84
2023/04/14 00:15:25;;;;;;;13.25;9.38;;;12.00;99.90;;;;;;5027597;28;20280;-85
2023/04/14 00:18:14;;;;;;;10.20;8.93;;;11.90;99.90;;;;;;5030884;28;20311;-83
2023/04/14 00:21:03;;;;;;;10.63;8.57;;;12.00;99.90;;;;;;5023092;28;20304;-84
2023/04/14 00:23:52;;;;;;;12.38;9.10;;;11.90;99.90;;;;;;5024904;28;20230;-83
2023/04/14 00:26:40;;;;;;;11.35;8.80;;;11.90;99.90;;;;;;5023186;28;20230;-84
2023/04/14 00:29:29;;;;;;;14.35;8.80;;;11.90;99.90;;;;;;5022929;28;20243;-78
2023/04/14 00:32:20;;;;;;;10.38;8.52;;;11.90;99.90;;;;;;5021005;28;20218;-77
2023/04/14 00:35:09;;;;;;;10.82;8.02;;;11.90;99.90;;;;;;5033434;28;20214;-79
2023/04/14 00:37:58;;;;;;;10.60;8.80;;;11.90;99.90;;;;;;5030891;28;20232;-77
2023/04/14 00:40:46;;;;;;;9.77;8.02;;;11.70;99.90;;;;;;5020429;28;20237;-80
2023/04/14 00:43:35;;;;;;;11.40;8.60;;;11.70;99.90;;;;;;5035943;28;20236;-79
2023/04/14 00:46:24;;;;;;;11.35;8.15;;;11.80;99.90;;;;;;5039681;28;20218;-79
2023/04/14 00:49:16;;;;;;;12.10;9.13;;;11.70;99.90;;;;;;5040805;28;20248;-78
2023/04/14 00:52:05;;;;;;;12.10;8.82;;;11.70;99.90;;;;;;5039945;28;20248;-80
2023/04/14 00:54:55;;;;;;;12.13;8.65;;;11.70;99.90;;;;;;5044787;28;20231;-81
2023/04/14 00:57:44;;;;;;;11.25;8.68;;;11.60;99.90;;;;;;5026343;28;20541;-82
2023/04/14 01:00:35;;;;;;;10.45;8.27;;;11.60;99.90;;;;;;5028207;28;20359;-82
2023/04/14 01:03:24;;;;;;;10.90;8.82;;;11.60;99.90;;;;;;5029600;28;20232;-80
2023/04/14 01:06:15;;;;;;;10.13;8.40;;;11.70;99.90;;;;;;5021879;28;20693;-82
2023/04/14 01:09:05;;;;;;;11.27;8.50;;;11.70;99.90;;;;;;5029433;28;20228;-82
2023/04/14 01:12:01;;;;;;;9.90;8.20;;;11.80;99.90;;;;;;5029992;28;20236;-82
2023/04/14 01:14:57;;;;;;;9.77;8.25;;;11.70;99.90;;;;;;5027225;28;20297;-82
2023/04/14 01:17:56;;;;;;;11.23;8.65;;;11.80;99.90;;;;;;5040745;28;20228;-81
2023/04/14 01:20:50;;;;;;;9.70;8.73;;;11.70;99.90;;;;;;5039882;28;20276;-82
2023/04/14 01:24:05;;;;;;;9.05;7.97;;;11.80;99.90;;;;;;5043220;28;20410;-82
2023/04/14 01:27:03;;;;;;;9.15;7.53;;;11.70;99.90;;;;;;5027816;28;20240;-85
2023/04/14 01:30:03;;;;;;;11.02;8.48;;;11.70;99.90;;;;;;5048030;28;20228;-82
2023/04/14 01:32:58;;;;;;;9.98;8.43;;;11.60;99.90;;;;;;5017606;28;20224;-81
2023/04/14 01:35:54;;;;;;;10.10;8.30;;;11.60;99.90;;;;;;5037843;28;20922;-81
2023/04/14 01:38:47;;;;;;;10.65;9.13;;;11.50;99.90;;;;;;5031791;28;20247;-79
2023/04/14 01:41:39;;;;;;;10.10;8.55;;;11.50;99.90;;;;;;5040021;28;20320;-82
2023/04/14 01:44:30;;;;;;;12.60;8.45;;;11.40;99.90;;;;;;5041737;28;20217;-79
2023/04/14 01:47:21;;;;;;;10.02;8.38;;;11.50;99.90;;;;;;5024405;28;20411;-79
2023/04/14 01:50:13;;;;;;;11.60;8.90;;;11.50;99.90;;;;;;5038063;28;20225;-80
2023/04/14 01:53:05;;;;;;;10.93;7.88;;;11.30;99.90;;;;;;5017901;28;20226;-80
2023/04/14 01:55:55;;;;;;;11.13;8.57;;;11.40;99.90;;;;;;5005556;28;20224;-81
2023/04/14 01:58:47;;;;;;;9.80;8.52;;;11.40;99.90;;;;;;5020917;28;20208;-81
2023/04/14 02:01:37;;;;;;;9.98;8.68;;;11.40;99.90;;;;;;5053462;28;21202;-79
2023/04/14 02:04:28;;;;;;;11.15;8.55;;;11.30;99.90;;;;;;5030721;28;20225;-80
2023/04/14 02:07:20;;;;;;;12.32;8.73;;;11.30;99.90;;;;;;5021856;28;20241;-80
2023/04/14 02:10:11;;;;;;;12.50;8.88;;;11.00;99.90;;;;;;5015374;28;20233;-80
2023/04/14 02:13:03;;;;;;;12.43;8.95;;;11.00;99.90;;;;;;5041075;28;20232;-80
2023/04/14 02:15:53;;;;;;;10.75;8.77;;;11.00;99.90;;;;;;5002668;28;20519;-80
2023/04/14 02:18:41;;;;;;;11.05;8.25;;;11.10;99.90;;;;;;5029433;28;20314;-82
2023/04/14 02:21:33;;;;;;;10.80;8.75;;;10.90;99.90;;;;;;5041519;28;20224;-79
2023/04/14 02:24:24;;;;;;;9.70;8.70;;;10.80;99.90;;;;;;5032299;28;20268;-80
2023/04/14 02:27:22;;;;;;;14.02;8.57;;;10.70;99.90;;;;;;5032093;28;20228;-79
2023/04/14 02:30:13;;;;;;;12.80;8.70;;;10.70;99.90;;;;;;5056330;28;20221;-83
2023/04/14 02:33:07;;;;;;;11.63;9.60;;;10.60;99.90;;;;;;5042225;28;20240;-83
2023/04/14 02:36:01;;;;;;;12.63;9.00;;;10.60;99.90;;;;;;5040334;28;20231;-82
2023/04/14 02:38:55;;;;;;;10.75;9.25;;;10.50;99.90;;;;;;5021575;28;20220;-82
2023/04/14 02:41:48;;;;;;;10.63;9.00;;;10.50;99.90;;;;;;5043803;28;20236;-81
2023/04/14 02:44:43;;;;;;;11.77;9.52;;;10.30;99.90;;;;;;5042524;28;20225;-82
2023/04/14 02:47:35;;;;;;;13.05;9.35;;;10.40;99.90;;;;;;5050238;28;21677;-82
2023/04/14 02:50:25;;;;;;;10.40;9.30;;;10.40;99.90;;;;;;5049635;28;20236;-81
2023/04/14 02:53:25;;;;;;;12.52;10.02;;;10.30;99.90;;;;;;5044070;28;20276;-85
2023/04/14 02:56:23;;;;;;;15.07;10.95;;;10.30;99.90;;;;;;5052886;28;20280;-82
2023/04/14 02:59:15;;;;;;;13.30;11.07;;;10.30;99.90;;;;;;5038074;28;20216;-82
2023/04/14 03:02:17;;;;;;;13.65;10.70;;;10.30;99.90;;;;;;5026962;28;20311;-81
2023/04/14 03:05:13;;;;;;;12.77;10.63;;;10.30;99.90;;;;;;5034745;28;20790;-81
2023/04/14 03:08:26;;;;;;;14.93;11.73;;;10.20;99.90;;;;;;5037660;28;20223;-83
2023/04/14 03:11:16;;;;;;;14.13;12.35;;;10.10;99.90;;;;;;5019438;28;20216;-81
2023/04/14 03:14:07;;;;;;;15.35;12.23;;;10.00;99.90;;;;;;5020842;28;20213;-81
2023/04/14 03:16:58;;;;;;;17.15;12.95;;;10.00;99.90;;;;;;5024981;28;20221;-81
2023/04/14 03:19:49;;;;;;;14.75;12.18;;;10.00;99.90;;;;;;5028816;28;20251;-80
2023/04/14 03:22:40;;;;;;;17.63;12.70;;;10.10;99.90;;;;;;5007804;28;20736;-79
2023/04/14 03:25:36;;;;;;;13.88;11.90;;;10.00;99.90;;;;;;5024349;28;20240;-81
2023/04/14 03:28:32;;;;;;;17.52;11.95;;;10.00;99.90;;;;;;5025270;28;20222;-81
2023/04/14 03:31:29;;;;;;;15.13;12.98;;;10.10;99.90;;;;;;5029755;28;20229;-79
2023/04/14 03:34:21;;;;;;;16.75;12.45;;;10.10;99.90;;;;;;5035365;28;20225;-80
2023/04/14 03:37:16;;;;;;;16.35;12.10;;;10.00;99.90;;;;;;5027712;28;20237;-78
2023/04/14 03:40:09;;;;;;;16.05;12.60;;;10.00;99.90;;;;;;5029634;28;20236;-79
2023/04/14 03:43:06;;;;;;;17.70;12.10;;;9.90;99.90;;;;;;5045794;28;20248;-78
2023/04/14 03:45:57;;;;;;;18.10;13.40;;;9.80;99.90;;;;;;5028424;28;20228;-76
2023/04/14 03:48:49;;;;;;;20.25;13.27;;;9.90;99.90;;;;;;5042845;28;20221;-76
2023/04/14 03:51:41;;;;;;;14.45;12.23;;;9.90;99.90;;;;;;5032017;28;20235;-77
2023/04/14 03:54:33;;;;;;;17.27;12.77;;;9.80;99.90;;;;;;5025115;28;20294;-77
2023/04/14 03:57:22;;;;;;;14.77;12.98;;;9.90;99.90;;;;;;5033079;28;20634;-78
2023/04/14 04:00:14;;;;;;;16.67;12.50;;;9.80;99.90;;;;;;5017938;28;20567;-77
2023/04/14 04:03:06;;;;;;;16.27;13.40;;;9.90;99.90;;;;;;5022991;28;20228;-76
2023/04/14 04:05:56;;;;;;;18.83;15.15;;;9.90;99.90;;;;;;5023714;28;20697;-76
2023/04/14 04:08:47;;;;;;;22.75;15.60;;;9.70;99.90;;;;;;5035352;28;20240;-77
2023/04/14 04:11:39;;;;;;;21.70;16.10;;;9.60;99.90;;;;;;5026207;28;20241;-79
2023/04/14 04:14:29;;;;;;;25.23;17.33;;;9.60;99.90;;;;;;5021373;28;20751;-79
2023/04/14 04:17:22;;;;;;;25.00;17.52;;;9.60;99.90;;;;;;5017805;28;20643;-78
2023/04/14 04:20:15;;;;;;;23.67;17.38;;;9.60;99.90;;;;;;5029052;28;20252;-79
2023/04/14 04:23:07;;;;;;;28.25;18.05;;;9.40;99.90;;;;;;5039492;28;20704;-79
2023/04/14 04:25:58;;;;;;;25.90;17.48;;;9.40;99.90;;;;;;5033594;28;20230;-82
2023/04/14 04:28:55;;;;;;;24.13;17.73;;;9.30;99.90;;;;;;5025074;28;20222;-80
2023/04/14 04:31:46;;;;;;;23.30;17.45;;;9.30;99.90;;;;;;5024217;28;20356;-79
2023/04/14 04:34:36;;;;;;;24.60;17.58;;;9.30;99.90;;;;;;5020745;28;20314;-77
2023/04/14 04:37:27;;;;;;;34.70;19.52;;;9.40;99.90;;;;;;5015306;28;20379;-83
2023/04/14 04:40:18;;;;;;;33.25;20.30;;;9.40;99.90;;;;;;5022800;28;20245;-82
2023/04/14 04:43:11;;;;;;;33.63;20.63;;;9.40;99.90;;;;;;5000942;28;20227;-83
2023/04/14 04:46:19;;;;;;;39.35;20.63;;;9.40;99.90;;;;;;5017802;28;20226;-80
2023/04/14 04:49:08;;;;;;;39.65;21.30;;;9.30;99.90;;;;;;5012926;28;20336;-80
2023/04/14 04:51:58;;;;;;;44.58;20.02;;;9.10;99.90;;;;;;5005089;28;20890;-79
2023/04/14 04:54:51;;;;;;;26.85;19.27;;;9.10;99.90;;;;;;5014661;28;20226;-78
2023/04/14 04:57:43;;;;;;;34.63;18.77;;;9.50;99.90;;;;;;5021198;28;20303;-80
2023/04/14 05:00:33;;;;;;;33.15;18.83;;;9.30;99.90;;;;;;5005012;28;20408;-76
2023/04/14 05:03:21;;;;;;;35.67;19.17;;;9.40;99.90;;;;;;5001122;28;20227;-76
2023/04/14 05:06:11;;;;;;;27.17;18.92;;;9.30;99.90;;;;;;5007359;28;20223;-76
2023/04/14 05:09:00;;;;;;;22.88;18.40;;;9.50;99.90;;;;;;5013153;28;20230;-81
2023/04/14 05:11:49;;;;;;;31.50;19.23;;;9.50;99.90;;;;;;5013536;28;20280;-77
2023/04/14 05:14:38;;;;;;;24.77;18.58;;;9.40;99.90;;;;;;5017449;28;20233;-78
2023/04/14 05:17:29;;;;;;;26.83;19.70;;;9.50;99.90;;;;;;5021124;28;20355;-79
2023/04/14 05:20:17;;;;;;;29.25;19.98;;;9.60;99.90;;;;;;5014891;28;20624;-78
2023/04/14 05:23:06;;;;;;;24.10;18.08;;;9.50;99.90;;;;;;5018070;28;20622;-78
2023/04/14 05:25:56;;;;;;;27.48;19.75;;;9.60;99.90;;;;;;5026312;28;20240;-79
2023/04/14 05:29:05;;;;;;;28.73;19.95;;;9.60;99.90;;;;;;5005544;28;20235;-80
2023/04/14 05:31:54;;;;;;;26.55;19.63;;;9.50;99.90;;;;;;5042318;28;20274;-82
2023/04/14 05:34:44;;;;;;;26.15;19.95;;;9.60;99.90;;;;;;5043133;28;20644;-80
2023/04/14 05:37:32;;;;;;;26.83;18.40;;;9.70;99.90;;;;;;5038836;28;21671;-79
2023/04/14 05:40:24;;;;;;;27.70;19.33;;;9.90;99.90;;;;;;5040189;28;20260;-78
2023/04/14 05:43:13;;;;;;;25.25;19.63;;;9.80;99.90;;;;;;5036432;28;20761;-77
2023/04/14 05:46:02;;;;;;;29.42;19.60;;;9.90;99.90;;;;;;5042042;28;20212;-76
2023/04/14 05:48:51;;;;;;;24.02;18.33;;;10.00;99.90;;;;;;5034759;28;20240;-77
2023/04/14 05:51:44;;;;;;;22.98;18.13;;;10.00;99.90;;;;;;5021262;28;20732;-79
2023/04/14 05:54:34;;;;;;;22.33;17.60;;;10.10;99.90;;;;;;5020612;28;20233;-78
2023/04/14 05:57:23;;;;;;;21.13;17.08;;;10.20;99.90;;;;;;5037011;28;20822;-79
2023/04/14 06:00:13;;;;;;;23.45;16.75;;;10.30;99.90;;;;;;5040769;28;20335;-79
2023/04/14 06:03:02;;;;;;;23.73;16.98;;;10.50;99.90;;;;;;5033716;28;20407;-80
2023/04/14 06:05:51;;;;;;;20.25;16.05;;;10.40;99.90;;;;;;5019743;28;20236;-80
2023/04/14 06:08:42;;;;;;;20.25;16.48;;;10.40;99.90;;;;;;5035610;28;20366;-79
2023/04/14 06:11:32;;;;;;;18.63;15.27;;;10.40;99.90;;;;;;5039217;28;20269;-82
2023/04/14 06:14:20;;;;;;;17.35;15.20;;;10.70;99.90;;;;;;5041617;28;20219;-75
2023/04/14 06:17:09;;;;;;;16.92;14.57;;;10.80;99.90;;;;;;5033569;28;20762;-79
2023/04/14 06:19:58;;;;;;;17.63;14.15;;;10.80;99.90;;;;;;5037254;28;20848;-78
2023/04/14 06:22:47;;;;;;;19.27;14.65;;;10.80;99.90;;;;;;5024087;28;20307;-75
2023/04/14 06:25:37;;;;;;;17.90;15.40;;;10.60;99.90;;;;;;5013520;28;20238;-78
2023/04/14 06:28:26;;;;;;;18.55;15.02;;;10.70;99.90;;;;;;5019498;28;20360;-81
2023/04/14 06:31:15;;;;;;;16.52;14.32;;;10.60;99.90;;;;;;5011420;28;20780;-79
2023/04/14 06:34:04;;;;;;;15.88;13.73;;;10.80;99.90;;;;;;5019349;28;20644;-78
2023/04/14 06:36:52;;;;;;;16.10;13.70;;;11.10;99.90;;;;;;5020537;28;20229;-80
2023/04/14 06:39:41;;;;;;;15.65;13.68;;;11.20;99.90;;;;;;5019543;28;20287;-78
2023/04/14 06:42:32;;;;;;;14.95;12.98;;;11.10;99.90;;;;;;5017945;28;20514;-79
2023/04/14 06:45:21;;;;;;;19.42;13.63;;;11.30;99.90;;;;;;5021982;28;20279;-80
2023/04/14 06:48:11;;;;;;;19.48;13.13;;;11.30;99.90;;;;;;5001327;28;20226;-80
2023/04/14 06:50:59;;;;;;;14.52;12.07;;;11.60;99.90;;;;;;5000435;28;20221;-80
2023/04/14 06:53:48;;;;;;;14.75;12.90;;;11.40;99.90;;;;;;5010354;28;20233;-79
2023/04/14 06:56:37;;;;;;;14.23;12.13;;;11.30;99.90;;;;;;4994559;28;20321;-80
2023/04/14 06:59:28;;;;;;;14.75;12.00;;;11.40;99.90;;;;;;4998190;28;20810;-78
2023/04/14 07:02:17;;;;;;;16.13;11.95;;;12.00;99.90;;;;;;5014036;28;20222;-80
2023/04/14 07:05:07;;;;;;;15.43;11.82;;;12.70;99.90;;;;;;5016472;28;20225;-81
2023/04/14 07:07:56;;;;;;;12.85;11.07;;;12.80;99.90;;;;;;5018266;28;20283;-76
2023/04/14 07:10:45;;;;;;;13.40;10.25;;;12.60;99.90;;;;;;5016623;28;20321;-80
2023/04/14 07:13:34;;;;;;;15.25;11.18;;;12.80;99.90;;;;;;5020435;28;20230;-78
2023/04/14 07:16:25;;;;;;;14.75;9.80;;;13.30;99.90;;;;;;5024498;28;20221;-77
2023/04/14 07:19:14;;;;;;;12.70;10.18;;;14.10;99.90;;;;;;5020116;28;21589;-84
2023/04/14 07:22:03;;;;;;;11.20;9.40;;;14.10;99.90;;;;;;5023678;28;20233;-85
2023/04/14 07:24:52;;;;;;;10.45;9.38;;;14.60;99.90;;;;;;5026926;28;20228;-77
2023/04/14 07:27:41;;;;;;;11.65;8.55;;;14.80;99.90;;;;;;5021583;28;20233;-81
2023/04/14 07:30:48;;;;;;;12.23;8.70;;;15.30;99.90;;;;;;5030317;28;20306;-80
2023/04/14 07:33:38;;;;;;;10.52;8.30;;;15.30;99.90;;;;;;5022653;28;20869;-81
2023/04/14 07:36:27;;;;;;;8.73;7.78;;;15.50;99.90;;;;;;5022812;28;20225;-80
2023/04/14 07:39:16;;;;;;;10.73;7.32;;;15.20;99.90;;;;;;5010491;28;20712;-80
2023/04/14 07:42:05;;;;;;;11.43;7.57;;;16.00;99.90;;;;;;5042294;28;20719;-80
2023/04/14 07:44:55;;;;;;;9.43;7.05;;;16.20;99.90;;;;;;5040511;28;20224;-80
2023/04/14 07:47:43;;;;;;;13.80;7.32;;;16.60;99.90;;;;;;5029651;28;20247;-80
2023/04/14 07:50:34;;;;;;;9.27;7.22;;;16.80;99.90;;;;;;5019272;28;20232;-80
2023/04/14 07:53:23;;;;;;;8.27;7.10;;;16.30;99.90;;;;;;5041678;28;20835;-78
2023/04/14 07:56:12;;;;;;;9.88;6.97;;;16.20;99.90;;;;;;5035918;28;20229;-78
2023/04/14 07:59:02;;;;;;;10.10;7.50;;;16.60;99.90;;;;;;5042382;28;20217;-79
2023/04/14 08:01:51;;;;;;;9.90;7.22;;;16.60;99.90;;;;;;5021437;28;20803;-79
2023/04/14 08:04:40;;;;;;;11.82;7.22;;;16.50;99.90;;;;;;5034230;28;20283;-81
2023/04/14 08:07:30;;;;;;;10.32;7.72;;;17.00;99.90;;;;;;5026637;28;20308;-78
2023/04/14 08:10:19;;;;;;;7.97;7.00;;;17.50;99.90;;;;;;5023564;28;20329;-79
2023/04/14 08:13:08;;;;;;;9.30;6.90;;;18.00;99.90;;;;;;5008290;28;20740;-78
2023/04/14 08:15:57;;;;;;;9.98;7.53;;;18.40;99.90;;;;;;5045233;28;20267;-80
2023/04/14 08:18:47;;;;;;;10.77;7.45;;;18.20;99.90;;;;;;5025755;28;20237;-79
2023/04/14 08:21:36;;;;;;;11.48;7.07;;;18.00;99.90;;;;;;5045547;28;20236;-78
2023/04/14 08:24:26;;;;;;;11.63;7.20;;;18.50;99.90;;;;;;5016751;28;20672;-79
2023/04/14 08:27:15;;;;;;;10.40;7.40;;;19.10;99.90;;;;;;5019179;28;20248;-79
2023/04/14 08:30:05;;;;;;;9.43;7.00;;;17.90;99.90;;;;;;5045731;28;20228;-80
2023/04/14 08:32:56;;;;;;;8.93;6.80;;;17.90;99.90;;;;;;5044380;28;20229;-79
2023/04/14 08:35:46;;;;;;;8.43;6.20;;;18.10;99.90;;;;;;5045096;28;20228;-79
2023/04/14 08:38:47;;;;;;;6.00;5.43;;;18.40;99.90;;;;;;5012708;28;20771;-78
2023/04/14 08:41:39;;;;;;;7.88;5.97;;;18.10;99.90;;;;;;5035564;28;20239;-79
2023/04/14 08:44:29;;;;;;;7.65;5.50;;;18.40;99.90;;;;;;5027860;28;20585;-79
2023/04/14 08:47:19;;;;;;;6.13;5.43;;;19.80;99.90;;;;;;5027056;28;20237;-78
2023/04/14 08:50:15;;;;;;;6.03;5.30;;;20.30;99.90;;;;;;5037655;28;20220;-79
2023/04/14 08:53:08;;;;;;;6.60;5.88;;;19.40;99.90;;;;;;5023870;28;20232;-79
2023/04/14 08:56:02;;;;;;;6.10;5.60;;;19.80;99.90;;;;;;5028658;28;20318;-79
2023/04/14 08:58:53;;;;;;;5.68;5.18;;;19.90;99.90;;;;;;5024993;28;20245;-79
2023/04/14 09:01:42;;;;;;;11.18;5.47;;;20.00;99.90;;;;;;5024839;28;20318;-78
2023/04/14 09:04:33;;;;;;;8.10;5.43;;;19.50;99.90;;;;;;5032271;28;20737;-78
2023/04/14 09:07:23;;;;;;;8.52;5.50;;;17.60;99.90;;;;;;5024267;28;20386;-79
2023/04/14 09:10:12;;;;;;;5.95;5.40;;;16.90;99.90;;;;;;5037065;28;20228;-80
2023/04/14 09:13:01;;;;;;;6.22;5.57;;;16.70;99.90;;;;;;5044113;28;20240;-79
2023/04/14 09:15:51;;;;;;;6.15;5.55;;;17.20;99.90;;;;;;5044964;28;20221;-79
2023/04/14 09:18:40;;;;;;;6.32;5.72;;;16.80;99.90;;;;;;5046485;28;20220;-79
2023/04/14 09:21:29;;;;;;;5.95;5.35;;;16.70;99.90;;;;;;5032393;28;20224;-79
2023/04/14 09:24:40;;;;;;;7.85;5.57;;;16.70;99.90;;;;;;5033272;28;20315;-78
2023/04/14 09:27:29;;;;;;;7.45;5.40;;;17.60;99.90;;;;;;5046034;28;20336;-79
2023/04/14 09:30:22;;;;;;;6.35;5.70;;;17.70;99.90;;;;;;5040530;28;20229;-78
2023/04/14 09:33:20;;;;;;;6.30;5.68;;;18.10;99.90;;;;;;5033797;28;20229;-78
2023/04/14 09:36:18;;;;;;;6.53;5.65;;;17.80;99.90;;;;;;5013307;28;20685;-78
2023/04/14 09:39:17;;;;;;;7.40;6.70;;;17.20;99.90;;;;;;5020862;28;20444;-79
2023/04/14 09:42:06;;;;;;;7.20;5.90;;;18.20;99.90;;;;;;5018668;28;20261;-80
2023/04/14 09:44:55;;;;;;;6.43;5.60;;;18.70;99.90;;;;;;5026683;28;20233;-76
2023/04/14 09:47:44;;;;;;;6.93;5.80;;;19.30;99.90;;;;;;5040847;28;20224;-77
2023/04/14 09:51:02;;;;;;;6.88;5.90;;;18.30;99.90;;;;;;5040929;28;20240;-80
2023/04/14 09:53:53;;;;;;;6.93;6.18;;;19.40;99.90;;;;;;5026694;28;20232;-77
2023/04/14 09:56:45;;;;;;;9.85;6.80;;;18.70;99.90;;;;;;5032282;28;20872;-77
2023/04/14 09:59:39;;;;;;;11.20;6.18;;;18.50;99.90;;;;;;5031828;28;20243;-77
2023/04/14 10:02:28;;;;;;;9.43;6.78;;;18.50;99.90;;;;;;5032422;28;20582;-77
2023/04/14 10:05:19;;;;;;;6.75;6.05;;;17.40;99.90;;;;;;5049352;28;20552;-76
2023/04/14 10:08:09;;;;;;;8.00;5.93;;;17.10;99.90;;;;;;5039735;28;20232;-75
2023/04/14 10:11:14;;;;;;;7.05;6.35;;;16.70;99.90;;;;;;5034197;28;20631;-75
2023/04/14 10:14:04;;;;;;;6.68;6.03;;;18.00;99.90;;;;;;5029349;28;20312;-75
2023/04/14 10:16:53;;;;;;;6.88;5.80;;;17.30;99.90;;;;;;5039823;28;20229;-75
2023/04/14 10:19:43;;;;;;;9.68;6.68;;;17.10;99.90;;;;;;5037872;28;20695;-75
2023/04/14 10:22:33;;;;;;;8.23;6.47;;;16.80;99.90;;;;;;5016890;28;20241;-75
2023/04/14 10:25:25;;;;;;;8.65;6.05;;;17.00;99.90;;;;;;5037791;28;20237;-75
2023/04/14 10:28:15;;;;;;;9.02;6.65;;;16.30;99.90;;;;;;5043128;28;20245;-73
2023/04/14 10:31:08;;;;;;;9.85;6.60;;;16.60;99.90;;;;;;5041680;28;20225;-73
2023/04/14 10:33:57;;;;;;;7.03;6.32;;;16.30;99.90;;;;;;5013913;28;20248;-74
2023/04/14 10:36:47;;;;;;;8.05;6.07;;;16.80;99.90;;;;;;5035890;28;20262;-74
2023/04/14 10:39:36;;;;;;;6.45;5.80;;;16.80;99.90;;;;;;5035942;28;20648;-73
2023/04/14 10:42:27;;;;;;;10.38;6.22;;;17.10;99.90;;;;;;5038086;28;20770;-74
2023/04/14 10:45:16;;;;;;;6.78;5.43;;;17.00;99.90;;;;;;5041715;28;20225;-74
2023/04/14 10:48:06;;;;;;;8.73;6.07;;;17.40;99.90;;;;;;5038209;28;20228;-74
2023/04/14 10:50:56;;;;;;;6.15;5.55;;;16.90;99.90;;;;;;5053735;28;20232;-73
2023/04/14 10:53:46;;;;;;;7.10;5.55;;;16.80;99.90;;;;;;5031559;28;20225;-74
2023/04/14 10:56:39;;;;;;;7.80;5.38;;;16.80;99.90;;;;;;5045463;28;20303;-75
2023/04/14 10:59:30;;;;;;;8.13;6.20;;;16.90;99.90;;;;;;5036368;28;20217;-75
2023/04/14 11:02:24;;;;;;;6.70;6.00;;;17.40;99.90;;;;;;5037089;28;20236;-72
2023/04/14 11:05:13;;;;;;;6.82;6.00;;;17.10;99.90;;;;;;5041701;28;20214;-73
2023/04/14 11:08:12;;;;;;;8.98;5.68;;;17.80;99.90;;;;;;5024326;28;20592;-74
2023/04/14 11:11:03;;;;;;;7.25;5.05;;;17.60;99.90;;;;;;5037363;28;20243;-75
2023/04/14 11:14:11;;;;;;;7.13;5.65;;;18.10;99.90;;;;;;5031416;28;20351;-74
2023/04/14 11:17:03;;;;;;;6.05;5.32;;;18.30;99.90;;;;;;5030639;28;20345;-75
2023/04/14 11:19:54;;;;;;;7.07;4.97;;;17.40;99.90;;;;;;5040301;28;20891;-75
2023/04/14 11:22:46;;;;;;;9.85;4.97;;;16.70;99.90;;;;;;5026119;28;20225;-74
2023/04/14 11:25:35;;;;;;;7.45;5.70;;;16.80;99.90;;;;;;5041057;28;20230;-74
2023/04/14 11:28:28;;;;;;;6.28;5.57;;;16.70;99.90;;;;;;5019477;28;20350;-74
2023/04/14 11:31:17;;;;;;;5.78;5.13;;;16.20;99.90;;;;;;5040031;28;20225;-75
2023/04/14 11:34:11;;;;;;;7.15;4.95;;;17.30;99.90;;;;;;5025521;28;20216;-75
2023/04/14 11:37:03;;;;;;;4.85;4.35;;;17.70;99.90;;;;;;5041862;28;20244;-73
2023/04/14 11:39:52;;;;;;;7.40;5.15;;;17.80;99.90;;;;;;5041745;28;20221;-74
2023/04/14 11:42:45;;;;;;;5.82;4.80;;;17.40;99.90;;;;;;5025648;28;20218;-74
2023/04/14 11:45:35;;;;;;;6.40;4.75;;;17.00;99.90;;;;;;5025401;28;20225;-75
2023/04/14 11:48:24;;;;;;;6.00;4.63;;;16.90;99.90;;;;;;5041290;28;20731;-74
2023/04/14 11:51:14;;;;;;;7.85;4.40;;;19.30;99.90;;;;;;5041504;28;20548;-75
2023/04/14 11:54:03;;;;;;;5.03;4.47;;;18.00;99.90;;;;;;5033347;28;20399;-73
2023/04/14 11:56:52;;;;;;;7.40;4.80;;;17.80;99.90;;;;;;5029582;28;20248;-74
2023/04/14 11:59:43;;;;;;;5.72;4.43;;;17.00;99.90;;;;;;5022165;28;20221;-74
2023/04/14 12:02:33;;;;;;;6.03;4.32;;;16.70;99.90;;;;;;5009450;28;20218;-74
2023/04/14 12:05:29;;;;;;;7.22;4.13;;;16.60;99.90;;;;;;5039140;28;20556;-73
2023/04/14 12:08:24;;;;;;;7.07;4.10;;;16.80;99.90;;;;;;5038896;28;20225;-73
2023/04/14 12:11:14;;;;;;;8.55;4.18;;;16.50;99.90;;;;;;5036443;28;20265;-73
2023/04/14 12:14:03;;;;;;;4.78;3.90;;;16.60;99.90;;;;;;5022033;28;20755;-74
2023/04/14 12:16:52;;;;;;;4.38;3.38;;;16.50;99.90;;;;;;5022764;28;20312;-74
2023/04/14 12:19:41;;;;;;;6.55;3.90;;;16.50;99.90;;;;;;5028116;28;20217;-76
2023/04/14 12:22:30;;;;;;;6.25;3.63;;;16.30;99.90;;;;;;5029389;28;20224;-73
2023/04/14 12:25:21;;;;;;;5.00;3.35;;;16.60;99.90;;;;;;5016570;28;20248;-74
2023/04/14 12:28:11;;;;;;;3.80;3.10;;;16.60;99.90;;;;;;5032627;28;20225;-71
2023/04/14 12:31:02;;;;;;;3.40;3.10;;;16.60;99.90;;;;;;5014871;28;20237;-73
2023/04/14 12:33:52;;;;;;;4.75;3.28;;;16.70;99.90;;;;;;5021789;28;20253;-75
2023/04/14 12:36:50;;;;;;;4.57;2.78;;;16.90;99.90;;;;;;5040780;28;20229;-75
2023/04/14 12:39:52;;;;;;;7.07;3.00;;;16.80;99.90;;;;;;5032818;28;20224;-75
2023/04/14 12:42:47;;;;;;;5.05;2.70;;;16.60;99.90;;;;;;5032496;28;20275;-77
2023/04/14 12:45:43;;;;;;;2.90;2.60;;;16.80;99.90;;;;;;5025545;28;20308;-76
2023/04/14 12:48:43;;;;;;;5.10;3.10;;;17.20;99.90;;;;;;5018331;28;20257;-76
2023/04/14 12:51:40;;;;;;;7.43;3.00;;;17.20;99.90;;;;;;5033463;28;20217;-77
2023/04/14 12:54:46;;;;;;;4.60;2.70;;;17.00;99.90;;;;;;5021044;28;20334;-78
2023/04/14 12:57:36;;;;;;;4.10;2.20;;;17.00;99.90;;;;;;5039657;28;20532;-76
2023/04/14 13:00:28;;;;;;;6.50;2.67;;;17.10;99.90;;;;;;5041392;28;20220;-76
2023/04/14 13:03:16;;;;;;;3.80;2.70;;;17.20;99.90;;;;;;5047133;28;20228;-76
2023/04/14 13:06:06;;;;;;;7.60;2.88;;;16.80;99.90;;;;;;5037975;28;20993;-77
2023/04/14 13:08:56;;;;;;;3.25;2.92;;;16.60;99.90;;;;;;5025310;28;20608;-74
2023/04/14 13:11:45;;;;;;;7.68;3.70;;;16.20;99.90;;;;;;5019852;28;20230;-76
2023/04/14 13:14:34;;;;;;;4.93;3.28;;;16.20;99.90;;;;;;5018130;28;20255;-76
2023/04/14 13:17:28;;;;;;;6.47;3.60;;;16.00;99.90;;;;;;5042547;28;20236;-76
2023/04/14 13:20:17;;;;;;;12.57;3.95;;;16.30;99.90;;;;;;5036608;28;20231;-76
2023/04/14 13:23:06;;;;;;;5.82;3.35;;;16.60;99.90;;;;;;5023070;28;20736;-72
2023/04/14 13:25:55;;;;;;;4.45;3.60;;;16.40;99.90;;;;;;5031294;28;20324;-77
2023/04/14 13:28:44;;;;;;;4.93;3.50;;;16.50;99.90;;;;;;5001658;28;20252;-77
2023/04/14 13:31:36;;;;;;;4.18;3.50;;;16.60;99.90;;;;;;5018995;28;20228;-78
2023/04/14 13:34:27;;;;;;;3.53;3.22;;;16.60;99.90;;;;;;5037756;28;20756;-76
2023/04/14 13:37:16;;;;;;;6.70;3.47;;;16.60;99.90;;;;;;5039055;28;20235;-77
2023/04/14 13:40:06;;;;;;;8.93;3.80;;;16.90;99.90;;;;;;5035548;28;20223;-77
2023/04/14 13:42:56;;;;;;;8.98;3.67;;;16.80;99.90;;;;;;5038116;28;20244;-78
2023/04/14 13:45:45;;;;;;;5.00;3.00;;;16.80;99.90;;;;;;5044074;28;20221;-77
2023/04/14 13:48:34;;;;;;;7.75;3.38;;;16.90;99.90;;;;;;5027467;28;20232;-76
2023/04/14 13:51:27;;;;;;;3.20;2.90;;;16.60;99.90;;;;;;5035039;28;20236;-75
2023/04/14 13:54:15;;;;;;;4.45;3.00;;;16.60;99.90;;;;;;5035222;28;20216;-75
2023/04/14 13:57:04;;;;;;;5.40;3.10;;;16.60;99.90;;;;;;5041967;28;20252;-75
2023/04/14 13:59:53;;;;;;;4.68;3.03;;;16.60;99.90;;;;;;5031828;28;20232;-76
2023/04/14 14:02:42;;;;;;;3.10;2.80;;;16.40;99.90;;;;;;5038149;28;20402;-74
2023/04/14 14:05:32;;;;;;;3.47;3.10;;;16.40;99.90;;;;;;5037400;28;20221;-75
2023/04/14 14:08:22;;;;;;;3.60;2.70;;;16.80;99.90;;;;;;5033657;28;20537;-75
2023/04/14 14:11:12;;;;;;;4.43;3.00;;;16.70;99.90;;;;;;5033674;28;20220;-74
2023/04/14 14:14:02;;;;;;;3.97;2.88;;;16.60;99.90;;;;;;5037572;28;20223;-76
2023/04/14 14:16:51;;;;;;;3.72;2.92;;;16.60;99.90;;;;;;5036407;28;20231;-74
2023/04/14 14:19:40;;;;;;;5.20;2.80;;;16.50;99.90;;;;;;5019708;28;20221;-75
2023/04/14 14:22:29;;;;;;;3.55;2.70;;;16.40;99.90;;;;;;5035057;28;20371;-75
2023/04/14 14:25:20;;;;;;;4.60;3.00;;;16.60;99.90;;;;;;5035332;28;20895;-75
2023/04/14 14:28:09;;;;;;;5.57;2.90;;;16.70;99.90;;;;;;5040897;28;20290;-75
2023/04/14 14:30:58;;;;;;;5.72;3.28;;;16.90;99.90;;;;;;5039037;28;20224;-75
2023/04/14 14:33:47;;;;;;;4.35;3.35;;;17.00;99.90;;;;;;5039585;28;20232;-74
2023/04/14 14:36:36;;;;;;;3.83;3.17;;;16.80;99.90;;;;;;5026626;28;20220;-73
2023/04/14 14:39:25;;;;;;;4.97;3.05;;;16.60;99.90;;;;;;5042056;28;20212;-73
2023/04/14 14:42:15;;;;;;;5.07;3.45;;;16.20;99.90;;;;;;5024745;28;20216;-77
2023/04/14 14:45:06;;;;;;;4.57;3.40;;;16.10;99.90;;;;;;5027437;28;20298;-76